sensor_id;sensor_type;location;lat;lon;timestamp;pressure;altitude;pressure_sealevel;temperature;humidity
34073;BME280;20346;52.702;16.886;2022-09-09T00:00:31;100420.94;;;17.24;64.89
34073;BME280;20346;52.702;16.886;2022-09-09T00:03:22;100422.09;;;17.27;64.96
34073;BME280;20346;52.702;16.886;2022-09-09T00:06:24;100420.26;;;17.29;65.02
34073;BME280;20346;52.702;16.886;2022-09-09T00:09:19;100419.34;;;17.30;65.09
34073;BME280;20346;52.702;16.886;2022-09-09T00:12:18;100412.28;;;17.32;65.17
34073;BME280;20346;52.702;16.886;2022-09-09T00:15:19;100413.58;;;17.32;65.30
34073;BME280;20346;52.702;16.886;2022-09-09T00:21:11;100404.36;;;17.33;65.46
34073;BME280;20346;52.702;16.886;2022-09-09T00:24:00;100401.61;;;17.36;65.51
34073;BME280;20346;52.702;16.886;2022-09-09T00:26:53;100398.99;;;17.36;65.61
34073;BME280;20346;52.702;16.886;2022-09-09T00:33:11;100393.37;;;17.35;65.76
34073;BME280;20346;52.702;16.886;2022-09-09T00:36:00;100395.60;;;17.34;65.86
34073;BME280;20346;52.702;16.886;2022-09-09T00:38:52;100395.60;;;17.34;65.88
34073;BME280;20346;52.702;16.886;2022-09-09T00:41:46;100395.14;;;17.35;65.96
34073;BME280;20346;52.702;16.886;2022-09-09T00:44:40;100395.36;;;17.30;66.05
34073;BME280;20346;52.702;16.886;2022-09-09T00:47:49;100400.59;;;17.30;66.15
34073;BME280;20346;52.702;16.886;2022-09-09T00:53:39;100403.98;;;17.32;66.29
34073;BME280;20346;52.702;16.886;2022-09-09T00:59:52;100407.58;;;17.30;66.59
34073;BME280;20346;52.702;16.886;2022-09-09T01:09:32;100417.05;;;17.32;66.73
34073;BME280;20346;52.702;16.886;2022-09-09T01:12:23;100420.82;;;17.35;66.76
34073;BME280;20346;52.702;16.886;2022-09-09T01:15:21;100426.37;;;17.38;66.80
34073;BME280;20346;52.702;16.886;2022-09-09T01:18:11;100430.67;;;17.39;66.90
34073;BME280;20346;52.702;16.886;2022-09-09T01:21:18;100429.37;;;17.39;66.94
34073;BME280;20346;52.702;16.886;2022-09-09T01:24:40;100436.29;;;17.40;66.96
34073;BME280;20346;52.702;16.886;2022-09-09T01:27:27;100437.45;;;17.43;67.05
34073;BME280;20346;52.702;16.886;2022-09-09T01:30:15;100440.53;;;17.42;67.15
34073;BME280;20346;52.702;16.886;2022-09-09T01:33:01;100437.98;;;17.41;67.21
34073;BME280;20346;52.702;16.886;2022-09-09T01:35:57;100439.68;;;17.42;67.24
34073;BME280;20346;52.702;16.886;2022-09-09T01:38:40;100438.30;;;17.43;67.32
34073;BME280;20346;52.702;16.886;2022-09-09T01:41:25;100435.30;;;17.42;67.42
34073;BME280;20346;52.702;16.886;2022-09-09T01:44:10;100434.45;;;17.42;67.47
34073;BME280;20346;52.702;16.886;2022-09-09T01:46:56;100435.30;;;17.42;67.60
34073;BME280;20346;52.702;16.886;2022-09-09T01:49:41;100438.30;;;17.43;67.58
34073;BME280;20346;52.702;16.886;2022-09-09T01:52:26;100441.77;;;17.44;67.68
34073;BME280;20346;52.702;16.886;2022-09-09T01:55:12;100442.61;;;17.44;67.70
34073;BME280;20346;52.702;16.886;2022-09-09T02:07:40;100445.61;;;17.45;67.98
34073;BME280;20346;52.702;16.886;2022-09-09T02:10:32;100442.22;;;17.43;68.06
34073;BME280;20346;52.702;16.886;2022-09-09T02:13:21;100445.30;;;17.43;68.13
34073;BME280;20346;52.702;16.886;2022-09-09T02:16:24;100446.22;;;17.42;68.16
34073;BME280;20346;52.702;16.886;2022-09-09T02:19:26;100445.83;;;17.41;68.24
34073;BME280;20346;52.702;16.886;2022-09-09T02:22:17;100445.89;;;17.39;68.30
34073;BME280;20346;52.702;16.886;2022-09-09T02:25:04;100445.58;;;17.37;68.36
34073;BME280;20346;52.702;16.886;2022-09-09T02:27:51;100455.65;;;17.36;68.45
34073;BME280;20346;52.702;16.886;2022-09-09T02:30:37;100448.80;;;17.33;68.52
34073;BME280;20346;52.702;16.886;2022-09-09T02:33:23;100456.25;;;17.32;68.49
34073;BME280;20346;52.702;16.886;2022-09-09T02:36:11;100453.63;;;17.32;68.89
34073;BME280;20346;52.702;16.886;2022-09-09T02:38:57;100456.31;;;17.31;68.52
34073;BME280;20346;52.702;16.886;2022-09-09T02:41:42;100457.63;;;17.31;68.61
34073;BME280;20346;52.702;16.886;2022-09-09T02:44:27;100448.55;;;17.29;68.66
34073;BME280;20346;52.702;16.886;2022-09-09T02:53:17;100454.37;;;17.26;68.81
34073;BME280;20346;52.702;16.886;2022-09-09T02:56:13;100448.38;;;17.24;68.85
34073;BME280;20346;52.702;16.886;2022-09-09T02:59:04;100456.42;;;17.19;68.93
34073;BME280;20346;52.702;16.886;2022-09-09T03:01:49;100460.48;;;17.16;68.96
34073;BME280;20346;52.702;16.886;2022-09-09T03:04:34;100468.48;;;17.13;69.02
34073;BME280;20346;52.702;16.886;2022-09-09T03:07:20;100466.47;;;17.09;69.04
34073;BME280;20346;52.702;16.886;2022-09-09T03:10:07;100472.61;;;17.08;69.08
34073;BME280;20346;52.702;16.886;2022-09-09T03:12:52;100474.84;;;17.07;69.13
34073;BME280;20346;52.702;16.886;2022-09-09T03:15:37;100475.75;;;17.06;69.14
34073;BME280;20346;52.702;16.886;2022-09-09T03:18:23;100480.91;;;17.08;69.21
34073;BME280;20346;52.702;16.886;2022-09-09T03:21:08;100483.91;;;17.09;69.26
34073;BME280;20346;52.702;16.886;2022-09-09T03:23:53;100484.69;;;17.11;69.31
34073;BME280;20346;52.702;16.886;2022-09-09T03:26:38;100472.41;;;17.13;69.28
34073;BME280;20346;52.702;16.886;2022-09-09T03:29:24;100471.03;;;17.14;69.31
34073;BME280;20346;52.702;16.886;2022-09-09T03:32:09;100473.64;;;17.14;69.43
34073;BME280;20346;52.702;16.886;2022-09-09T03:34:54;100478.02;;;17.14;69.42
34073;BME280;20346;52.702;16.886;2022-09-09T03:37:39;100470.19;;;17.14;69.48
34073;BME280;20346;52.702;16.886;2022-09-09T03:40:25;100470.72;;;17.12;69.51
34073;BME280;20346;52.702;16.886;2022-09-09T03:43:10;100479.92;;;17.10;69.56
34073;BME280;20346;52.702;16.886;2022-09-09T03:45:55;100478.37;;;17.06;69.62
34073;BME280;20346;52.702;16.886;2022-09-09T03:48:43;100473.73;;;17.03;69.67
34073;BME280;20346;52.702;16.886;2022-09-09T03:51:28;100479.09;;;17.00;69.68
34073;BME280;20346;52.702;16.886;2022-09-09T03:54:13;100480.61;;;16.95;69.75
34073;BME280;20346;52.702;16.886;2022-09-09T03:56:58;100484.20;;;16.93;69.70
34073;BME280;20346;52.702;16.886;2022-09-09T03:59:43;100489.56;;;16.90;69.76
34073;BME280;20346;52.702;16.886;2022-09-09T04:02:28;100488.45;;;16.85;69.80
34073;BME280;20346;52.702;16.886;2022-09-09T04:05:13;100496.03;;;16.81;69.88
34073;BME280;20346;52.702;16.886;2022-09-09T04:07:59;100494.53;;;16.75;69.92
34073;BME280;20346;52.702;16.886;2022-09-09T04:10:45;100493.88;;;16.70;69.91
34073;BME280;20346;52.702;16.886;2022-09-09T04:13:34;100501.52;;;16.65;69.96
34073;BME280;20346;52.702;16.886;2022-09-09T04:16:19;100501.72;;;16.60;70.01
34073;BME280;20346;52.702;16.886;2022-09-09T04:19:05;100500.54;;;16.57;70.08
34073;BME280;20346;52.702;16.886;2022-09-09T04:21:52;100512.75;;;16.57;70.12
34073;BME280;20346;52.702;16.886;2022-09-09T04:24:37;100513.66;;;16.55;70.17
34073;BME280;20346;52.702;16.886;2022-09-09T04:27:23;100516.20;;;16.57;70.17
34073;BME280;20346;52.702;16.886;2022-09-09T04:30:09;100508.31;;;16.59;70.25
34073;BME280;20346;52.702;16.886;2022-09-09T04:32:54;100516.98;;;16.59;70.30
34073;BME280;20346;52.702;16.886;2022-09-09T04:35:43;100522.27;;;16.58;70.33
34073;BME280;20346;52.702;16.886;2022-09-09T04:38:30;100520.58;;;16.57;70.36
34073;BME280;20346;52.702;16.886;2022-09-09T04:41:15;100524.95;;;16.56;70.42
34073;BME280;20346;52.702;16.886;2022-09-09T04:44:01;100527.56;;;16.56;70.45
34073;BME280;20346;52.702;16.886;2022-09-09T04:46:47;100521.95;;;16.55;70.43
34073;BME280;20346;52.702;16.886;2022-09-09T04:49:32;100530.62;;;16.55;70.48
34073;BME280;20346;52.702;16.886;2022-09-09T04:52:17;100534.55;;;16.55;70.50
34073;BME280;20346;52.702;16.886;2022-09-09T04:55:03;100534.02;;;16.58;70.61
34073;BME280;20346;52.702;16.886;2022-09-09T04:57:48;100541.79;;;16.59;70.69
34073;BME280;20346;52.702;16.886;2022-09-09T05:00:36;100537.35;;;16.61;70.73
34073;BME280;20346;52.702;16.886;2022-09-09T05:03:21;100539.05;;;16.62;70.79
34073;BME280;20346;52.702;16.886;2022-09-09T05:06:08;100539.84;;;16.64;70.81
34073;BME280;20346;52.702;16.886;2022-09-09T05:08:54;100542.77;;;16.67;70.85
34073;BME280;20346;52.702;16.886;2022-09-09T05:11:40;100539.52;;;16.72;70.90
34073;BME280;20346;52.702;16.886;2022-09-09T05:14:26;100542.06;;;16.73;70.95
34073;BME280;20346;52.702;16.886;2022-09-09T05:17:11;100547.55;;;16.77;70.98
34073;BME280;20346;52.702;16.886;2022-09-09T05:19:57;100548.27;;;16.81;71.02
34073;BME280;20346;52.702;16.886;2022-09-09T05:22:42;100551.20;;;16.83;71.02
34073;BME280;20346;52.702;16.886;2022-09-09T05:25:28;100551.14;;;16.85;71.05
34073;BME280;20346;52.702;16.886;2022-09-09T05:28:13;100549.24;;;16.88;71.10
34073;BME280;20346;52.702;16.886;2022-09-09T05:30:59;100558.19;;;16.93;71.14
34073;BME280;20346;52.702;16.886;2022-09-09T05:33:48;100552.44;;;16.95;71.22
34073;BME280;20346;52.702;16.886;2022-09-09T05:36:36;100549.77;;;16.97;71.25
34073;BME280;20346;52.702;16.886;2022-09-09T05:39:21;100554.72;;;17.03;71.27
34073;BME280;20346;52.702;16.886;2022-09-09T05:42:06;100557.06;;;17.09;71.30
34073;BME280;20346;52.702;16.886;2022-09-09T05:44:51;100556.41;;;17.14;71.32
34073;BME280;20346;52.702;16.886;2022-09-09T05:47:37;100556.17;;;17.18;71.37
34073;BME280;20346;52.702;16.886;2022-09-09T05:50:22;100558.98;;;17.24;71.84
34073;BME280;20346;52.702;16.886;2022-09-09T05:53:08;100563.75;;;17.25;71.41
34073;BME280;20346;52.702;16.886;2022-09-09T05:56:05;100559.63;;;17.29;71.48
34073;BME280;20346;52.702;16.886;2022-09-09T05:58:56;100560.41;;;17.31;71.45
34073;BME280;20346;52.702;16.886;2022-09-09T06:01:42;100561.50;;;17.36;71.49
34073;BME280;20346;52.702;16.886;2022-09-09T06:04:27;100565.68;;;17.40;71.52
34073;BME280;20346;52.702;16.886;2022-09-09T06:07:12;100562.47;;;17.43;71.51
34073;BME280;20346;52.702;16.886;2022-09-09T06:10:00;100566.19;;;17.48;71.58
34073;BME280;20346;52.702;16.886;2022-09-09T06:12:45;100573.43;;;17.51;71.58
34073;BME280;20346;52.702;16.886;2022-09-09T06:15:30;100575.45;;;17.55;71.62
34073;BME280;20346;52.702;16.886;2022-09-09T06:18:16;100581.15;;;17.73;71.81
34073;BME280;20346;52.702;16.886;2022-09-09T06:21:05;100574.64;;;18.01;71.79
34073;BME280;20346;52.702;16.886;2022-09-09T06:23:52;100582.61;;;18.16;71.64
34073;BME280;20346;52.702;16.886;2022-09-09T06:26:38;100591.23;;;18.18;71.57
34073;BME280;20346;52.702;16.886;2022-09-09T06:29:26;100589.08;;;18.18;71.63
34073;BME280;20346;52.702;16.886;2022-09-09T06:32:11;100583.07;;;18.16;71.62
34073;BME280;20346;52.702;16.886;2022-09-09T06:34:56;100582.92;;;18.19;71.62
34073;BME280;20346;52.702;16.886;2022-09-09T06:37:44;100587.91;;;18.24;71.67
34073;BME280;20346;52.702;16.886;2022-09-09T06:40:32;100586.91;;;18.26;71.64
34073;BME280;20346;52.702;16.886;2022-09-09T06:43:17;100586.77;;;18.29;71.70
34073;BME280;20346;52.702;16.886;2022-09-09T06:46:17;100581.38;;;18.32;71.68
34073;BME280;20346;52.702;16.886;2022-09-09T06:49:08;100579.78;;;18.38;71.70
34073;BME280;20346;52.702;16.886;2022-09-09T06:51:53;100582.41;;;18.47;71.73
34073;BME280;20346;52.702;16.886;2022-09-09T06:54:38;100584.03;;;18.49;71.93
34073;BME280;20346;52.702;16.886;2022-09-09T06:57:23;100584.64;;;18.46;71.71
34073;BME280;20346;52.702;16.886;2022-09-09T07:00:09;100585.10;;;18.45;71.67
34073;BME280;20346;52.702;16.886;2022-09-09T07:02:55;100584.56;;;18.47;71.72
34073;BME280;20346;52.702;16.886;2022-09-09T07:05:40;100581.57;;;18.55;71.76
34073;BME280;20346;52.702;16.886;2022-09-09T07:08:25;100580.53;;;18.68;71.76
34073;BME280;20346;52.702;16.886;2022-09-09T07:11:11;100586.55;;;18.70;71.71
34073;BME280;20346;52.702;16.886;2022-09-09T07:13:58;100583.47;;;18.70;71.79
34073;BME280;20346;52.702;16.886;2022-09-09T07:16:45;100584.12;;;18.74;71.77
34073;BME280;20346;52.702;16.886;2022-09-09T07:19:30;100593.06;;;18.78;71.79
34073;BME280;20346;52.702;16.886;2022-09-09T07:22:15;100597.08;;;18.85;71.84
34073;BME280;20346;52.702;16.886;2022-09-09T07:25:00;100597.92;;;18.86;71.70
34073;BME280;20346;52.702;16.886;2022-09-09T07:27:47;100595.92;;;18.91;71.66
34073;BME280;20346;52.702;16.886;2022-09-09T07:30:32;100596.84;;;18.99;71.75
34073;BME280;20346;52.702;16.886;2022-09-09T07:33:18;100597.29;;;19.15;71.75
34073;BME280;20346;52.702;16.886;2022-09-09T07:36:05;100606.99;;;19.46;71.84
34073;BME280;20346;52.702;16.886;2022-09-09T07:38:55;100606.94;;;20.58;71.64
34073;BME280;20346;52.702;16.886;2022-09-09T07:41:45;100604.78;;;21.02;71.71
34073;BME280;20346;52.702;16.886;2022-09-09T07:44:31;100609.00;;;22.11;71.18
34073;BME280;20346;52.702;16.886;2022-09-09T07:47:18;100611.94;;;22.73;71.22
34073;BME280;20346;52.702;16.886;2022-09-09T07:50:23;100615.95;;;22.86;70.84
34073;BME280;20346;52.702;16.886;2022-09-09T07:53:08;100622.58;;;22.91;70.56
34073;BME280;20346;52.702;16.886;2022-09-09T07:55:53;100626.52;;;23.36;70.54
34073;BME280;20346;52.702;16.886;2022-09-09T07:58:40;100622.61;;;23.17;70.17
34073;BME280;20346;52.702;16.886;2022-09-09T08:01:28;100623.17;;;23.02;70.26
34073;BME280;20346;52.702;16.886;2022-09-09T08:04:17;100631.60;;;22.94;70.26
34073;BME280;20346;52.702;16.886;2022-09-09T08:07:03;100630.77;;;22.74;70.03
34073;BME280;20346;52.702;16.886;2022-09-09T08:09:48;100633.04;;;22.46;69.88
34073;BME280;20346;52.702;16.886;2022-09-09T08:12:34;100645.77;;;22.12;69.91
34073;BME280;20346;52.702;16.886;2022-09-09T08:15:18;100637.69;;;21.87;69.89
34073;BME280;20346;52.702;16.886;2022-09-09T08:18:03;100639.14;;;21.64;69.73
34073;BME280;20346;52.702;16.886;2022-09-09T08:20:48;100647.13;;;21.56;69.74
34073;BME280;20346;52.702;16.886;2022-09-09T08:23:33;100644.20;;;21.39;69.42
34073;BME280;20346;52.702;16.886;2022-09-09T08:26:21;100642.14;;;21.23;69.42
34073;BME280;20346;52.702;16.886;2022-09-09T08:29:08;100643.08;;;21.22;69.51
34073;BME280;20346;52.702;16.886;2022-09-09T08:31:57;100645.44;;;21.26;69.36
34073;BME280;20346;52.702;16.886;2022-09-09T08:34:43;100645.62;;;21.23;69.19
34073;BME280;20346;52.702;16.886;2022-09-09T08:37:28;100646.23;;;21.20;69.15
34073;BME280;20346;52.702;16.886;2022-09-09T08:40:18;100648.38;;;21.13;69.03
34073;BME280;20346;52.702;16.886;2022-09-09T08:43:04;100651.39;;;21.14;69.01
34073;BME280;20346;52.702;16.886;2022-09-09T08:46:11;100648.73;;;21.30;68.90
34073;BME280;20346;52.702;16.886;2022-09-09T08:51:48;100649.10;;;21.59;68.59
34073;BME280;20346;52.702;16.886;2022-09-09T08:54:34;100647.22;;;21.68;68.60
34073;BME280;20346;52.702;16.886;2022-09-09T08:57:23;100648.73;;;21.65;68.43
34073;BME280;20346;52.702;16.886;2022-09-09T09:00:13;100658.31;;;21.66;68.32
34073;BME280;20346;52.702;16.886;2022-09-09T09:12:41;100649.27;;;21.42;68.06
34073;BME280;20346;52.702;16.886;2022-09-09T09:15:36;100653.61;;;21.29;67.97
34073;BME280;20346;52.702;16.886;2022-09-09T09:18:19;100652.97;;;21.09;67.84
34073;BME280;20346;52.702;16.886;2022-09-09T09:23:57;100640.53;;;20.90;67.90
34073;BME280;20346;52.702;16.886;2022-09-09T09:26:44;100644.73;;;20.86;67.86
34073;BME280;20346;52.702;16.886;2022-09-09T09:29:29;100649.14;;;20.85;67.80
34073;BME280;20346;52.702;16.886;2022-09-09T09:32:16;100647.27;;;20.87;67.77
34073;BME280;20346;52.702;16.886;2022-09-09T09:35:06;100650.47;;;20.78;67.33
34073;BME280;20346;52.702;16.886;2022-09-09T09:37:53;100646.58;;;20.46;67.36
34073;BME280;20346;52.702;16.886;2022-09-09T09:40:48;100641.49;;;20.43;67.65
34073;BME280;20346;52.702;16.886;2022-09-09T09:43:42;100639.92;;;20.48;67.59
34073;BME280;20346;52.702;16.886;2022-09-09T09:46:31;100641.66;;;20.40;67.44
34073;BME280;20346;52.702;16.886;2022-09-09T09:49:17;100641.49;;;20.43;67.51
34073;BME280;20346;52.702;16.886;2022-09-09T09:52:03;100640.94;;;20.45;67.44
34073;BME280;20346;52.702;16.886;2022-09-09T09:54:50;100645.84;;;20.52;67.37
34073;BME280;20346;52.702;16.886;2022-09-09T09:57:37;100652.24;;;20.55;67.32
34073;BME280;20346;52.702;16.886;2022-09-09T10:00:23;100648.51;;;20.59;67.31
34073;BME280;20346;52.702;16.886;2022-09-09T10:06:16;100652.10;;;20.65;67.22
34073;BME280;20346;52.702;16.886;2022-09-09T10:09:02;100654.76;;;20.72;67.21
34073;BME280;20346;52.702;16.886;2022-09-09T10:12:00;100643.43;;;20.78;67.17
34073;BME280;20346;52.702;16.886;2022-09-09T10:15:20;100641.53;;;20.80;67.03
34073;BME280;20346;52.702;16.886;2022-09-09T10:18:27;100642.58;;;20.85;67.08
34073;BME280;20346;52.702;16.886;2022-09-09T10:31:32;100651.73;;;21.01;66.93
34073;BME280;20346;52.702;16.886;2022-09-09T10:34:34;100652.31;;;21.06;66.85
34073;BME280;20346;52.702;16.886;2022-09-09T10:38:01;100655.77;;;20.99;66.63
34073;BME280;20346;52.702;16.886;2022-09-09T10:57:59;100660.47;;;21.60;66.55
34073;BME280;20346;52.702;16.886;2022-09-09T11:00:55;100666.30;;;21.72;66.51
34073;BME280;20346;52.702;16.886;2022-09-09T11:03:49;100664.58;;;21.85;66.47
34073;BME280;20346;52.702;16.886;2022-09-09T11:06:43;100663.54;;;21.95;66.36
34073;BME280;20346;52.702;16.886;2022-09-09T11:09:39;100665.62;;;22.04;66.26
34073;BME280;20346;52.702;16.886;2022-09-09T11:12:28;100667.42;;;22.03;66.20
34073;BME280;20346;52.702;16.886;2022-09-09T11:15:44;100668.64;;;22.05;66.21
34073;BME280;20346;52.702;16.886;2022-09-09T11:18:38;100664.87;;;22.09;66.07
34073;BME280;20346;52.702;16.886;2022-09-09T11:21:40;100662.05;;;22.05;65.96
34073;BME280;20346;52.702;16.886;2022-09-09T11:24:35;100650.01;;;22.08;66.03
34073;BME280;20346;52.702;16.886;2022-09-09T11:28:48;100655.27;;;22.15;65.95
34073;BME280;20346;52.702;16.886;2022-09-09T11:41:04;100658.64;;;21.96;65.71
34073;BME280;20346;52.702;16.886;2022-09-09T11:43:54;100653.66;;;21.91;65.63
34073;BME280;20346;52.702;16.886;2022-09-09T11:46:41;100660.06;;;21.87;65.41
34073;BME280;20346;52.702;16.886;2022-09-09T11:49:41;100653.20;;;21.85;65.51
34073;BME280;20346;52.702;16.886;2022-09-09T11:52:37;100649.06;;;21.88;65.38
34073;BME280;20346;52.702;16.886;2022-09-09T11:55:30;100650.84;;;21.94;65.39
34073;BME280;20346;52.702;16.886;2022-09-09T11:58:18;100644.72;;;22.01;65.30
34073;BME280;20346;52.702;16.886;2022-09-09T12:01:24;100640.80;;;22.08;65.24
34073;BME280;20346;52.702;16.886;2022-09-09T12:04:25;100643.98;;;22.13;65.21
34073;BME280;20346;52.702;16.886;2022-09-09T12:10:38;100635.41;;;22.17;64.98
34073;BME280;20346;52.702;16.886;2022-09-09T12:13:28;100637.17;;;22.30;64.81
34073;BME280;20346;52.702;16.886;2022-09-09T12:16:40;100638.43;;;22.37;64.62
34073;BME280;20346;52.702;16.886;2022-09-09T12:19:29;100630.41;;;22.46;64.56
34073;BME280;20346;52.702;16.886;2022-09-09T12:22:33;100640.84;;;22.48;64.31
34073;BME280;20346;52.702;16.886;2022-09-09T12:25:37;100628.78;;;22.51;64.24
34073;BME280;20346;52.702;16.886;2022-09-09T12:31:59;100633.53;;;22.65;63.94
34073;BME280;20346;52.702;16.886;2022-09-09T12:34:57;100633.16;;;22.64;63.75
34073;BME280;20346;52.702;16.886;2022-09-09T12:37:56;100622.72;;;22.63;63.63
34073;BME280;20346;52.702;16.886;2022-09-09T12:40:54;100617.44;;;22.63;63.48
34073;BME280;20346;52.702;16.886;2022-09-09T12:43:47;100614.13;;;22.66;63.31
34073;BME280;20346;52.702;16.886;2022-09-09T12:46:47;100611.23;;;22.64;63.13
34073;BME280;20346;52.702;16.886;2022-09-09T12:49:45;100610.01;;;22.62;63.00
34073;BME280;20346;52.702;16.886;2022-09-09T12:52:42;100609.64;;;22.61;62.88
34073;BME280;20346;52.702;16.886;2022-09-09T12:55:32;100615.75;;;22.62;62.84
34073;BME280;20346;52.702;16.886;2022-09-09T12:58:44;100618.59;;;22.59;62.46
34073;BME280;20346;52.702;16.886;2022-09-09T13:01:32;100610.52;;;22.55;62.28
34073;BME280;20346;52.702;16.886;2022-09-09T13:04:20;100601.86;;;22.53;62.21
34073;BME280;20346;52.702;16.886;2022-09-09T13:07:09;100601.66;;;22.56;62.15
34073;BME280;20346;52.702;16.886;2022-09-09T13:09:57;100603.83;;;22.56;61.86
34073;BME280;20346;52.702;16.886;2022-09-09T13:12:42;100604.56;;;22.58;61.59
34073;BME280;20346;52.702;16.886;2022-09-09T13:15:29;100602.03;;;22.57;61.57
34073;BME280;20346;52.702;16.886;2022-09-09T13:18:15;100604.30;;;22.56;61.42
34073;BME280;20346;52.702;16.886;2022-09-09T13:21:02;100606.56;;;22.55;61.35
34073;BME280;20346;52.702;16.886;2022-09-09T13:23:51;100610.61;;;22.53;61.24
34073;BME280;20346;52.702;16.886;2022-09-09T13:26:36;100604.80;;;22.48;60.99
34073;BME280;20346;52.702;16.886;2022-09-09T13:29:22;100596.92;;;22.41;60.96
34073;BME280;20346;52.702;16.886;2022-09-09T13:32:15;100606.44;;;22.36;60.83
34073;BME280;20346;52.702;16.886;2022-09-09T13:35:02;100603.09;;;22.34;60.72
34073;BME280;20346;52.702;16.886;2022-09-09T13:37:47;100599.08;;;22.41;60.60
34073;BME280;20346;52.702;16.886;2022-09-09T13:40:32;100598.31;;;22.46;60.47
34073;BME280;20346;52.702;16.886;2022-09-09T13:43:21;100607.16;;;22.45;60.36
34073;BME280;20346;52.702;16.886;2022-09-09T13:49:27;100598.71;;;22.40;60.17
34073;BME280;20346;52.702;16.886;2022-09-09T13:52:15;100599.86;;;22.36;60.09
34073;BME280;20346;52.702;16.886;2022-09-09T13:55:03;100599.72;;;22.32;60.03
34073;BME280;20346;52.702;16.886;2022-09-09T13:57:54;100596.23;;;22.32;59.97
34073;BME280;20346;52.702;16.886;2022-09-09T14:00:40;100600.66;;;22.31;59.92
34073;BME280;20346;52.702;16.886;2022-09-09T14:03:24;100595.56;;;22.35;59.82
34073;BME280;20346;52.702;16.886;2022-09-09T14:06:12;100596.51;;;22.34;59.60
34073;BME280;20346;52.702;16.886;2022-09-09T14:08:58;100598.40;;;22.32;59.53
34073;BME280;20346;52.702;16.886;2022-09-09T14:11:44;100597.55;;;22.32;59.40
34073;BME280;20346;52.702;16.886;2022-09-09T14:14:32;100591.34;;;22.33;59.38
34073;BME280;20346;52.702;16.886;2022-09-09T14:17:16;100589.08;;;22.34;59.24
34073;BME280;20346;52.702;16.886;2022-09-09T14:20:04;100593.74;;;22.36;59.07
34073;BME280;20346;52.702;16.886;2022-09-09T14:22:51;100582.73;;;22.36;58.93
34073;BME280;20346;52.702;16.886;2022-09-09T14:25:39;100591.11;;;22.36;58.83
34073;BME280;20346;52.702;16.886;2022-09-09T14:28:25;100583.34;;;22.34;58.81
34073;BME280;20346;52.702;16.886;2022-09-09T14:31:13;100575.30;;;22.36;58.75
34073;BME280;20346;52.702;16.886;2022-09-09T14:33:58;100575.94;;;22.39;58.65
34073;BME280;20346;52.702;16.886;2022-09-09T14:36:43;100573.20;;;22.41;58.60
34073;BME280;20346;52.702;16.886;2022-09-09T14:39:29;100569.05;;;22.44;58.51
34073;BME280;20346;52.702;16.886;2022-09-09T14:42:14;100570.74;;;22.45;58.49
34073;BME280;20346;52.702;16.886;2022-09-09T14:45:00;100572.80;;;22.47;58.42
34073;BME280;20346;52.702;16.886;2022-09-09T14:47:45;100568.75;;;22.49;58.35
34073;BME280;20346;52.702;16.886;2022-09-09T14:50:30;100573.45;;;22.51;58.21
34073;BME280;20346;52.702;16.886;2022-09-09T14:53:16;100579.66;;;22.50;58.19
34073;BME280;20346;52.702;16.886;2022-09-09T14:56:07;100572.80;;;22.47;58.10
34073;BME280;20346;52.702;16.886;2022-09-09T14:58:55;100575.91;;;22.46;58.07
34073;BME280;20346;52.702;16.886;2022-09-09T15:01:40;100574.70;;;22.45;57.96
34073;BME280;20346;52.702;16.886;2022-09-09T15:04:25;100578.65;;;22.45;57.91
34073;BME280;20346;52.702;16.886;2022-09-09T15:07:12;100583.38;;;22.40;57.70
34073;BME280;20346;52.702;16.886;2022-09-09T15:09:57;100576.14;;;22.36;57.66
34073;BME280;20346;52.702;16.886;2022-09-09T15:12:42;100579.48;;;22.33;57.54
34073;BME280;20346;52.702;16.886;2022-09-09T15:15:28;100572.63;;;22.30;57.43
34073;BME280;20346;52.702;16.886;2022-09-09T15:18:14;100577.99;;;22.29;57.45
34073;BME280;20346;52.702;16.886;2022-09-09T15:21:00;100574.52;;;22.28;57.41
34073;BME280;20346;52.702;16.886;2022-09-09T15:23:47;100574.14;;;22.27;57.35
34073;BME280;20346;52.702;16.886;2022-09-09T15:26:33;100569.07;;;22.24;57.31
34073;BME280;20346;52.702;16.886;2022-09-09T15:29:19;100565.79;;;22.21;57.26
34073;BME280;20346;52.702;16.886;2022-09-09T15:32:04;100563.25;;;22.19;57.20
34073;BME280;20346;52.702;16.886;2022-09-09T15:34:49;100560.82;;;22.16;57.15
34073;BME280;20346;52.702;16.886;2022-09-09T15:37:35;100567.61;;;22.13;57.16
34073;BME280;20346;52.702;16.886;2022-09-09T15:40:20;100568.17;;;22.11;57.11
34073;BME280;20346;52.702;16.886;2022-09-09T15:43:06;100564.89;;;22.07;57.08
34073;BME280;20346;52.702;16.886;2022-09-09T15:45:54;100570.92;;;22.02;57.01
34073;BME280;20346;52.702;16.886;2022-09-09T15:48:42;100570.44;;;21.96;57.00
34073;BME280;20346;52.702;16.886;2022-09-09T15:51:28;100564.44;;;21.87;56.94
34073;BME280;20346;52.702;16.886;2022-09-09T15:54:18;100567.50;;;21.80;56.93
34073;BME280;20346;52.702;16.886;2022-09-09T15:57:05;100562.62;;;21.74;56.92
34073;BME280;20346;52.702;16.886;2022-09-09T15:59:52;100559.90;;;21.69;56.87
34073;BME280;20346;52.702;16.886;2022-09-09T16:02:37;100558.50;;;21.63;56.89
34073;BME280;20346;52.702;16.886;2022-09-09T16:05:22;100558.78;;;21.59;56.88
34073;BME280;20346;52.702;16.886;2022-09-09T16:08:07;100559.45;;;21.55;56.87
34073;BME280;20346;52.702;16.886;2022-09-09T16:10:51;100568.47;;;21.51;56.87
34073;BME280;20346;52.702;16.886;2022-09-09T16:13:37;100577.30;;;21.50;56.87